Time;durP1;ratioP1;P1;durP2;ratioP2;P2;SDS_P1;SDS_P2;PMS_P1;PMS_P2;Temp;Humidity;BMP_temperature;BMP_pressure;BME280_temperature;BME280_humidity;BME280_pressure;Samples;Min_cycle;Max_cycle;Signal;HPM_P1;HPM_P2
2023/06/02 00:01:04;;;;;;;0.10;0.10;;;;;;;14.59;53.66;102364.28;5041224;28;20030;-77
2023/06/02 00:03:33;;;;;;;0.10;0.10;;;;;;;14.62;53.44;102364.25;5042772;28;20021;-79
2023/06/02 00:06:00;;;;;;;0.00;0.00;;;;;;;14.62;53.27;102372.25;5041191;28;20109;-77
2023/06/02 00:08:28;;;;;;;0.10;0.10;;;;;;;14.59;53.04;102363.41;5040767;28;20036;-78
2023/06/02 00:10:55;;;;;;;0.10;0.10;;;;;;;14.53;53.17;102362.59;5039117;28;20063;-78
2023/06/02 00:13:21;;;;;;;0.10;0.10;;;;;;;14.56;52.66;102362.53;5040833;28;20045;-78
2023/06/02 00:15:48;;;;;;;0.03;0.03;;;;;;;14.59;52.45;102356.28;5040855;28;20009;-77
2023/06/02 00:18:14;;;;;;;0.10;0.10;;;;;;;14.58;52.69;102349.22;5038108;28;20040;-76
2023/06/02 00:20:41;;;;;;;0.10;0.10;;;;;;;14.53;52.85;102351.94;5044460;28;20578;-78
2023/06/02 00:23:08;;;;;;;0.10;0.10;;;;;;;14.62;52.58;102353.59;5043794;28;20584;-78
2023/06/02 00:25:36;;;;;;;0.10;0.10;;;;;;;14.52;52.74;102350.16;5039502;28;20026;-76
2023/06/02 00:28:02;;;;;;;0.15;0.15;;;;;;;14.49;52.51;102352.88;5040411;28;20032;-76
2023/06/02 00:30:30;;;;;;;0.35;0.35;;;;;;;14.47;52.27;102352.00;5044452;28;20048;-78
2023/06/02 00:32:56;;;;;;;0.40;0.40;;;;;;;14.36;52.43;102354.78;5039360;28;20032;-77
2023/06/02 00:35:22;;;;;;;0.10;0.10;;;;;;;14.37;52.46;102353.88;5042146;28;20026;-77
2023/06/02 00:37:48;;;;;;;0.60;0.60;;;;;;;14.34;52.69;102355.69;5040253;28;20041;-78
2023/06/02 00:40:15;;;;;;;0.10;0.10;;;;;;;14.35;52.33;102353.00;5040488;28;20049;-75
2023/06/02 00:42:41;;;;;;;0.10;0.10;;;;;;;14.42;52.37;102353.84;5043902;28;20508;-78
2023/06/02 00:45:08;;;;;;;0.08;0.08;;;;;;;14.37;52.78;102361.03;5042073;28;20029;-77
2023/06/02 00:47:35;;;;;;;0.10;0.10;;;;;;;14.32;52.22;102358.41;5040043;28;20060;-78
2023/06/02 00:50:01;;;;;;;0.10;0.10;;;;;;;14.33;52.33;102351.28;5039296;28;20032;-79
2023/06/02 00:52:28;;;;;;;0.10;0.10;;;;;;;14.30;51.93;102343.31;5040336;28;20065;-78
2023/06/02 00:54:56;;;;;;;0.57;0.57;;;;;;;14.31;52.32;102358.41;5038024;28;20040;-76
2023/06/02 00:57:28;;;;;;;0.10;0.10;;;;;;;14.27;52.14;102356.66;5042294;28;20064;-76
2023/06/02 00:59:56;;;;;;;0.10;0.10;;;;;;;14.29;51.87;102355.75;5039306;28;20049;-75
2023/06/02 01:02:22;;;;;;;0.00;0.00;;;;;;;14.31;52.12;102363.75;5039389;28;20029;-75
2023/06/02 01:04:51;;;;;;;0.35;0.35;;;;;;;14.34;52.04;102355.69;5043978;28;20030;-76
2023/06/02 01:07:23;;;;;;;0.10;0.10;;;;;;;14.33;52.42;102361.94;5039572;28;20644;-77
2023/06/02 01:09:54;;;;;;;0.10;0.10;;;;;;;14.32;52.21;102363.72;5040788;28;20052;-76
2023/06/02 01:12:21;;;;;;;0.32;0.32;;;;;;;14.32;52.11;102361.06;5048338;28;20047;-77
2023/06/02 01:14:47;;;;;;;0.10;0.10;;;;;;;14.24;52.31;102361.16;5042042;28;20059;-75
2023/06/02 01:17:15;;;;;;;0.20;0.20;;;;;;;14.16;52.93;102372.81;5037707;28;20037;-77
2023/06/02 01:19:43;;;;;;;0.10;0.10;;;;;;;14.15;52.57;102371.03;5044726;28;20096;-75
2023/06/02 01:22:13;;;;;;;0.10;0.10;;;;;;;14.14;52.94;102359.47;5042933;28;20049;-77
2023/06/02 01:24:40;;;;;;;0.28;0.28;;;;;;;14.15;52.97;102368.38;5052653;28;20033;-77
2023/06/02 01:27:08;;;;;;;0.00;0.00;;;;;;;14.19;52.76;102371.00;5053515;28;20310;-76
2023/06/02 01:29:36;;;;;;;1.17;1.17;;;;;;;14.10;52.79;102372.88;5037759;28;20033;-79
2023/06/02 01:37:28;;;;;;;0.10;0.10;;;;;;;14.13;52.76;102363.06;5059304;28;20412;-75
2023/06/02 01:39:55;;;;;;;0.05;0.05;;;;;;;13.99;52.61;102357.84;5054065;28;20537;-79
2023/06/02 01:42:22;;;;;;;0.00;0.00;;;;;;;13.86;53.07;102358.88;5062487;28;20033;-77
2023/06/02 01:44:50;;;;;;;0.32;0.32;;;;;;;13.91;53.26;102354.38;5063288;28;20040;-79
2023/06/02 01:47:16;;;;;;;0.13;0.13;;;;;;;13.94;53.15;102353.47;5063884;28;20029;-77
2023/06/02 01:49:42;;;;;;;0.43;0.43;;;;;;;13.95;52.86;102352.59;5061007;28;20104;-79
2023/06/02 01:52:08;;;;;;;0.70;0.65;;;;;;;13.91;52.77;102357.94;5065165;28;20072;-79
2023/06/02 01:54:36;;;;;;;0.10;0.10;;;;;;;13.76;53.22;102350.09;5060364;28;20029;-79
2023/06/02 01:57:02;;;;;;;1.10;1.00;;;;;;;13.84;53.76;102352.69;5062484;28;20029;-78
2023/06/02 01:59:28;;;;;;;0.10;0.10;;;;;;;13.85;52.98;102354.44;5060408;28;20438;-79
2023/06/02 02:01:54;;;;;;;0.10;0.10;;;;;;;13.75;53.03;102356.31;5062204;28;20033;-79
2023/06/02 02:04:22;;;;;;;0.10;0.10;;;;;;;13.82;52.88;102366.03;5071806;28;20033;-78
2023/06/02 02:06:52;;;;;;;0.10;0.10;;;;;;;13.77;53.25;102357.19;5066472;28;20035;-77
2023/06/02 02:09:18;;;;;;;0.00;0.00;;;;;;;13.75;52.93;102350.97;5067626;28;20173;-80
2023/06/02 02:11:44;;;;;;;0.10;0.10;;;;;;;13.73;53.23;102363.41;5065136;28;20037;-75
2023/06/02 02:14:13;;;;;;;0.10;0.10;;;;;;;13.81;53.09;102355.38;5067988;28;20043;-78
2023/06/02 02:16:44;;;;;;;0.00;0.00;;;;;;;13.71;53.12;102360.78;5064487;28;20274;-78
2023/06/02 02:19:12;;;;;;;0.10;0.10;;;;;;;13.81;53.08;102360.72;5064981;28;20032;-75
2023/06/02 02:21:39;;;;;;;0.10;0.10;;;;;;;13.77;53.21;102364.28;5063686;28;20013;-76
2023/06/02 02:24:05;;;;;;;0.10;0.10;;;;;;;13.80;53.27;102361.59;5061544;28;20101;-77
2023/06/02 02:26:32;;;;;;;0.10;0.10;;;;;;;13.82;53.22;102360.69;5065389;28;20067;-78
2023/06/02 02:28:58;;;;;;;0.00;0.00;;;;;;;13.81;53.26;102364.25;5062322;28;20514;-78
2023/06/02 02:31:24;;;;;;;0.10;0.10;;;;;;;13.82;53.30;102363.34;5063866;28;20013;-78
2023/06/02 02:33:50;;;;;;;3.05;1.65;;;;;;;13.79;53.18;102355.38;5062494;28;20033;-79
2023/06/02 02:36:17;;;;;;;0.10;0.10;;;;;;;13.84;53.06;102356.22;5062769;28;20041;-79
2023/06/02 02:38:43;;;;;;;1.55;1.17;;;;;;;13.81;53.23;102355.38;5059930;28;20029;-80
2023/06/02 02:41:10;;;;;;;0.10;0.10;;;;;;;13.76;53.28;102355.41;5060511;28;20044;-80
2023/06/02 02:43:36;;;;;;;0.10;0.10;;;;;;;13.72;53.09;102351.00;5060987;28;20213;-77
2023/06/02 02:46:02;;;;;;;0.10;0.10;;;;;;;13.76;53.27;102352.75;5063098;28;20021;-78
2023/06/02 02:48:28;;;;;;;0.50;0.50;;;;;;;13.75;53.11;102357.19;5052233;28;20033;-79
2023/06/02 02:50:55;;;;;;;0.10;0.10;;;;;;;13.78;53.15;102353.59;5050255;28;20029;-78
2023/06/02 02:53:21;;;;;;;0.10;0.10;;;;;;;13.73;53.88;102345.69;5051797;28;20021;-78
2023/06/02 02:55:49;;;;;;;0.43;0.43;;;;;;;13.65;53.75;102343.97;5050429;28;20029;-79
2023/06/02 02:58:18;;;;;;;0.10;0.10;;;;;;;13.71;53.64;102336.81;5051057;28;20045;-79
2023/06/02 03:00:45;;;;;;;0.10;0.10;;;;;;;13.77;53.76;102342.97;5048635;28;20036;-77
2023/06/02 03:03:12;;;;;;;0.10;0.10;;;;;;;13.79;53.71;102341.19;5047374;28;20179;-76
2023/06/02 03:05:41;;;;;;;0.10;0.10;;;;;;;13.73;53.23;102337.69;5045516;28;20041;-77
2023/06/02 03:08:09;;;;;;;0.10;0.10;;;;;;;13.75;53.66;102335.00;5044271;28;20120;-79
2023/06/02 03:10:36;;;;;;;0.20;0.20;;;;;;;13.75;53.61;102335.88;5042870;28;20052;-79
2023/06/02 03:13:02;;;;;;;0.05;0.05;;;;;;;13.71;53.46;102346.59;5044925;28;20133;-77
2023/06/02 03:15:28;;;;;;;0.40;0.40;;;;;;;13.71;53.49;102343.94;5048900;28;20120;-77
2023/06/02 03:17:55;;;;;;;0.10;0.10;;;;;;;13.78;52.97;102340.28;5046720;28;20060;-77
2023/06/02 03:20:21;;;;;;;0.10;0.10;;;;;;;13.74;53.56;102343.88;5050978;28;20033;-78
2023/06/02 03:22:48;;;;;;;0.10;0.10;;;;;;;13.71;53.76;102344.78;5043879;28;20103;-79
2023/06/02 03:25:14;;;;;;;0.10;0.10;;;;;;;13.71;53.67;102338.59;5044324;28;20518;-80
2023/06/02 03:27:40;;;;;;;0.10;0.10;;;;;;;13.76;53.74;102342.09;5049965;28;20036;-77
2023/06/02 03:30:07;;;;;;;0.10;0.10;;;;;;;13.71;53.63;102339.47;5049550;28;20049;-76
2023/06/02 03:32:33;;;;;;;0.20;0.20;;;;;;;13.62;53.70;102341.31;5041131;28;20026;-79
2023/06/02 03:34:59;;;;;;;0.10;0.10;;;;;;;13.72;53.51;102340.34;5046851;28;20109;-79
2023/06/02 03:37:25;;;;;;;0.00;0.00;;;;;;;13.64;53.42;102339.53;5044539;28;20025;-78
2023/06/02 03:39:51;;;;;;;0.13;0.13;;;;;;;13.73;53.26;102342.13;5041537;28;20025;-78
2023/06/02 03:42:18;;;;;;;0.10;0.10;;;;;;;13.73;53.32;102336.78;5046102;28;20045;-80
2023/06/02 03:44:44;;;;;;;0.10;0.10;;;;;;;13.68;53.51;102339.50;5045495;28;20029;-76
2023/06/02 03:47:10;;;;;;;0.20;0.20;;;;;;;13.64;53.25;102336.88;5042109;28;20026;-79
2023/06/02 03:49:36;;;;;;;0.10;0.10;;;;;;;13.72;53.27;102340.34;5048809;28;20089;-79
2023/06/02 03:52:03;;;;;;;0.10;0.10;;;;;;;13.71;53.17;102346.59;5044439;28;20049;-79
2023/06/02 03:54:29;;;;;;;0.08;0.08;;;;;;;13.75;53.57;102341.19;5045167;28;20164;-77
2023/06/02 03:56:55;;;;;;;0.10;0.10;;;;;;;13.69;53.21;102345.72;5039700;28;20033;-78
2023/06/02 03:59:21;;;;;;;0.43;0.43;;;;;;;13.64;53.89;102355.53;5047583;28;20033;-78
2023/06/02 04:01:47;;;;;;;0.20;0.20;;;;;;;13.65;53.80;102343.97;5049024;28;20032;-77
2023/06/02 04:04:13;;;;;;;0.00;0.00;;;;;;;13.77;53.54;102353.63;5049182;28;20041;-76
2023/06/02 04:06:41;;;;;;;0.10;0.10;;;;;;;13.64;53.55;102351.06;5050199;28;20093;-78
2023/06/02 04:09:12;;;;;;;0.73;0.73;;;;;;;13.76;53.05;102344.75;5048221;28;20491;-77
2023/06/02 04:11:39;;;;;;;1.10;1.08;;;;;;;13.71;52.86;102354.59;5049517;28;20030;-79
2023/06/02 04:14:05;;;;;;;0.10;0.10;;;;;;;13.77;53.03;102351.88;5051917;28;20039;-77
2023/06/02 04:16:32;;;;;;;0.03;0.03;;;;;;;13.74;52.82;102351.88;5051274;28;20465;-77
2023/06/02 04:18:58;;;;;;;0.10;0.10;;;;;;;13.66;51.85;102351.06;5049255;28;20021;-78
2023/06/02 04:21:24;;;;;;;0.13;0.13;;;;;;;13.76;52.31;102352.75;5048538;28;20029;-78
2023/06/02 04:23:50;;;;;;;0.40;0.40;;;;;;;13.83;52.25;102362.47;5047071;28;20025;-79
2023/06/02 04:26:16;;;;;;;0.00;0.00;;;;;;;13.75;52.22;102356.31;5043178;28;20075;-79
2023/06/02 04:28:42;;;;;;;0.10;0.10;;;;;;;13.78;51.81;102366.91;5042531;28;20542;-78
2023/06/02 04:31:11;;;;;;;0.10;0.10;;;;;;;13.86;51.93;102367.75;5044778;28;20021;-79
2023/06/02 04:33:37;;;;;;;0.32;0.32;;;;;;;13.85;52.08;102362.44;5047041;28;20021;-79
2023/06/02 04:36:03;;;;;;;0.10;0.10;;;;;;;13.84;52.32;102355.34;5043744;28;20040;-79
2023/06/02 04:38:31;;;;;;;0.10;0.10;;;;;;;13.79;51.99;102358.03;5043022;28;20479;-77
2023/06/02 04:40:57;;;;;;;0.05;0.05;;;;;;;13.85;52.07;102357.13;5045704;28;20037;-77
2023/06/02 04:43:23;;;;;;;0.43;0.38;;;;;;;13.85;52.35;102362.44;5047064;28;20045;-78
2023/06/02 04:45:49;;;;;;;0.10;0.10;;;;;;;13.79;52.15;102358.03;5046299;28;20029;-76
2023/06/02 04:48:16;;;;;;;0.10;0.10;;;;;;;13.86;52.08;102365.09;5045034;28;20037;-77
2023/06/02 04:50:42;;;;;;;0.10;0.10;;;;;;;13.91;52.52;102363.25;5046034;28;20033;-77
2023/06/02 04:53:08;;;;;;;0.00;0.00;;;;;;;13.95;52.24;102368.56;5045109;28;20041;-76
2023/06/02 04:55:34;;;;;;;0.10;0.10;;;;;;;13.93;52.99;102371.22;5047326;28;20025;-77
2023/06/02 04:58:00;;;;;;;0.00;0.00;;;;;;;14.06;52.49;102364.00;5043642;28;20036;-76
2023/06/02 05:00:28;;;;;;;0.73;0.47;;;;;;;14.00;52.29;102369.41;5040632;28;20042;-78
2023/06/02 05:02:54;;;;;;;0.10;0.10;;;;;;;14.03;52.46;102367.59;5043868;28;20017;-76
2023/06/02 05:05:21;;;;;;;0.10;0.10;;;;;;;14.05;52.20;102371.09;5042158;28;20037;-77
2023/06/02 05:07:47;;;;;;;39.78;1.85;;;;;;;14.08;52.04;102364.84;5041941;28;20040;-79
2023/06/02 05:10:13;;;;;;;0.10;0.10;;;;;;;14.14;51.61;102358.59;5033243;28;20037;-79
2023/06/02 05:12:41;;;;;;;0.32;0.32;;;;;;;14.13;52.03;102371.06;5044349;28;20018;-77
2023/06/02 05:15:08;;;;;;;1.13;1.13;;;;;;;14.13;51.66;102368.38;5049152;28;20089;-80
2023/06/02 05:17:34;;;;;;;0.10;0.10;;;;;;;14.18;51.85;102369.22;5048322;28;20025;-80
2023/06/02 05:20:00;;;;;;;0.08;0.08;;;;;;;14.20;51.57;102369.19;5047122;28;20052;-79
2023/06/02 05:22:27;;;;;;;0.10;0.10;;;;;;;14.24;52.06;102371.81;5045212;28;20029;-77
2023/06/02 05:24:54;;;;;;;0.10;0.10;;;;;;;14.28;51.89;102370.00;5043898;28;20025;-78
2023/06/02 05:27:20;;;;;;;0.10;0.10;;;;;;;14.33;51.53;102375.25;5042916;28;20052;-77
2023/06/02 05:29:46;;;;;;;0.00;0.00;;;;;;;14.38;51.53;102374.31;5042209;28;20120;-76
2023/06/02 05:32:12;;;;;;;0.00;0.00;;;;;;;14.38;51.69;102368.09;5048012;28;20037;-75
2023/06/02 05:34:39;;;;;;;0.03;0.03;;;;;;;14.45;51.10;102364.47;5049190;28;20041;-78
2023/06/02 05:37:05;;;;;;;0.10;0.10;;;;;;;14.49;51.40;102375.97;5041886;28;20041;-79
2023/06/02 05:39:32;;;;;;;0.00;0.00;;;;;;;14.49;51.22;102375.97;5043590;28;20101;-79
2023/06/02 05:41:58;;;;;;;0.00;0.00;;;;;;;14.46;51.39;102365.34;5046798;28;20029;-80
2023/06/02 05:44:24;;;;;;;0.00;0.00;;;;;;;14.51;51.38;102369.72;5047339;28;20041;-79
2023/06/02 05:46:50;;;;;;;0.08;0.08;;;;;;;14.47;51.25;102362.66;5045038;28;20040;-78
2023/06/02 05:49:16;;;;;;;0.00;0.00;;;;;;;14.55;51.43;102376.81;5044932;28;20033;-80
2023/06/02 05:51:43;;;;;;;0.00;0.00;;;;;;;14.55;51.51;102382.13;5045545;28;20037;-77
2023/06/02 05:54:09;;;;;;;0.10;0.10;;;;;;;14.57;51.11;102369.66;5042458;28;20083;-77
2023/06/02 05:56:35;;;;;;;0.10;0.10;;;;;;;14.54;51.12;102376.81;5041909;28;20025;-80
2023/06/02 05:59:01;;;;;;;0.08;0.08;;;;;;;14.60;50.77;102367.84;5033904;28;20032;-78
2023/06/02 06:01:28;;;;;;;0.20;0.20;;;;;;;14.61;51.04;102372.28;5039906;28;20033;-79
2023/06/02 06:03:54;;;;;;;0.10;0.10;;;;;;;14.64;50.84;102378.47;5040278;28;20013;-76
2023/06/02 06:06:20;;;;;;;0.13;0.13;;;;;;;14.68;51.32;102371.34;5038561;28;20056;-77
2023/06/02 06:08:46;;;;;;;0.00;0.00;;;;;;;14.62;50.63;102382.06;5041186;28;20040;-76
2023/06/02 06:11:13;;;;;;;0.00;0.00;;;;;;;14.63;50.77;102373.13;5028352;28;20026;-78
2023/06/02 06:13:39;;;;;;;0.10;0.10;;;;;;;14.68;50.99;102374.03;5032250;28;20124;-76
2023/06/02 06:16:06;;;;;;;0.10;0.10;;;;;;;14.69;50.90;102367.75;5027191;28;20042;-76
2023/06/02 06:18:32;;;;;;;0.73;0.73;;;;;;;14.73;50.80;102369.50;5034843;28;20104;-78
2023/06/02 06:20:58;;;;;;;0.05;0.05;;;;;;;14.73;51.16;102374.84;5035786;28;20033;-76
2023/06/02 06:23:25;;;;;;;0.10;0.10;;;;;;;14.79;50.73;102373.84;5042787;28;20032;-76
2023/06/02 06:25:51;;;;;;;0.00;0.00;;;;;;;14.82;50.75;102374.69;5043567;28;20010;-75
2023/06/02 06:28:17;;;;;;;1.08;0.90;;;;;;;14.79;50.86;102374.75;5039769;28;20207;-76
2023/06/02 06:30:45;;;;;;;0.40;0.28;;;;;;;14.77;50.81;102376.56;5036938;28;20040;-77
2023/06/02 06:33:11;;;;;;;1.05;0.98;;;;;;;14.77;51.12;102381.03;5035932;28;20256;-77
2023/06/02 06:35:37;;;;;;;0.05;0.05;;;;;;;14.83;50.74;102387.16;5031056;28;20498;-76
2023/06/02 06:38:04;;;;;;;0.00;0.00;;;;;;;14.87;50.64;102383.53;5031568;28;20077;-75
2023/06/02 06:40:31;;;;;;;0.30;0.30;;;;;;;14.88;50.43;102379.97;5032719;28;20045;-74
2023/06/02 06:42:57;;;;;;;0.65;0.60;;;;;;;14.96;50.74;102381.66;5033968;28;20029;-77
2023/06/02 06:45:24;;;;;;;0.00;0.00;;;;;;;14.96;50.42;102379.84;5034141;28;20029;-76
2023/06/02 06:47:50;;;;;;;0.10;0.10;;;;;;;15.17;50.36;102376.00;5032846;28;20167;-76
2023/06/02 06:50:16;;;;;;;0.10;0.10;;;;;;;15.25;49.74;102378.53;5032710;28;20479;-76
2023/06/02 06:52:45;;;;;;;0.10;0.10;;;;;;;15.38;49.84;102379.25;5028679;28;20033;-77
2023/06/02 06:55:11;;;;;;;0.10;0.10;;;;;;;15.40;49.41;102374.75;5033311;28;20021;-77
2023/06/02 06:57:37;;;;;;;0.00;0.00;;;;;;;15.45;49.74;102375.59;5032940;28;20573;-76
2023/06/02 07:00:05;;;;;;;0.10;0.10;;;;;;;15.45;49.97;102383.59;5033251;28;20029;-76
2023/06/02 07:02:31;;;;;;;0.03;0.03;;;;;;;15.51;49.89;102383.50;5035066;28;20030;-76
2023/06/02 07:04:58;;;;;;;0.05;0.05;;;;;;;15.53;50.05;102380.81;5034641;28;20044;-77
2023/06/02 07:07:24;;;;;;;0.52;0.52;;;;;;;15.69;49.82;102379.63;5030188;28;20096;-76
2023/06/02 07:09:50;;;;;;;0.43;0.43;;;;;;;15.80;49.64;102383.91;5031947;28;20406;-75
2023/06/02 07:12:16;;;;;;;0.10;0.10;;;;;;;15.87;49.25;102382.06;5029461;28;20033;-76
2023/06/02 07:14:42;;;;;;;0.10;0.10;;;;;;;15.87;48.99;102380.25;5034506;28;20029;-77
2023/06/02 07:17:08;;;;;;;0.10;0.10;;;;;;;15.78;49.17;102378.59;5037764;28;20716;-75
2023/06/02 07:19:34;;;;;;;0.10;0.10;;;;;;;15.81;49.18;102383.91;5036333;28;20029;-76
2023/06/02 07:22:00;;;;;;;0.00;0.00;;;;;;;15.84;49.21;102391.88;5045099;28;20025;-75
2023/06/02 07:24:27;;;;;;;0.10;0.10;;;;;;;15.94;49.56;102383.72;5051318;28;20117;-75
2023/06/02 07:26:54;;;;;;;0.10;0.10;;;;;;;15.95;49.21;102393.47;5053668;28;20018;-76
2023/06/02 07:29:21;;;;;;;0.20;0.20;;;;;;;15.99;49.15;102393.41;5052946;28;20025;-77
2023/06/02 07:31:47;;;;;;;0.10;0.10;;;;;;;16.04;48.73;102390.66;5049762;28;20029;-76
2023/06/02 07:34:13;;;;;;;0.00;0.00;;;;;;;16.08;49.23;102387.00;5050863;28;20445;-77
2023/06/02 07:36:39;;;;;;;0.82;0.77;;;;;;;16.15;48.77;102388.66;5048532;28;20056;-75
2023/06/02 07:39:05;;;;;;;0.10;0.10;;;;;;;16.17;48.67;102386.84;5048885;28;20037;-79
2023/06/02 07:41:32;;;;;;;0.00;0.00;;;;;;;16.26;48.76;102379.53;5049902;28;20838;-79
2023/06/02 07:43:58;;;;;;;0.10;0.10;;;;;;;16.31;48.12;102383.00;5051457;28;20039;-77
2023/06/02 07:46:24;;;;;;;1.33;1.23;;;;;;;16.40;47.76;102382.84;5050638;28;20083;-78
2023/06/02 07:48:50;;;;;;;0.43;0.43;;;;;;;16.47;48.34;102376.47;5051632;28;20048;-78
2023/06/02 07:51:16;;;;;;;0.10;0.10;;;;;;;16.56;48.22;102387.88;5045361;28;20056;-77
2023/06/02 07:53:43;;;;;;;0.20;0.20;;;;;;;16.62;48.14;102388.66;5047810;28;20037;-77
2023/06/02 07:56:09;;;;;;;0.57;0.57;;;;;;;16.78;47.93;102382.97;5049984;28;20044;-77
2023/06/02 07:58:35;;;;;;;0.10;0.10;;;;;;;16.89;48.15;102380.91;5050883;28;20029;-78
2023/06/02 08:01:02;;;;;;;0.10;0.10;;;;;;;16.98;47.60;102383.44;5048874;28;20026;-77
2023/06/02 08:03:28;;;;;;;0.30;0.30;;;;;;;16.96;46.80;102387.06;5050682;28;20037;-77
2023/06/02 08:05:54;;;;;;;0.10;0.10;;;;;;;17.13;47.51;102375.97;5048947;28;20040;-77
2023/06/02 08:08:20;;;;;;;0.10;0.10;;;;;;;17.22;47.64;102378.44;5050461;28;20037;-78
2023/06/02 08:10:46;;;;;;;0.00;0.00;;;;;;;17.35;47.52;102376.34;5049842;28;20029;-76
2023/06/02 08:13:13;;;;;;;11.88;1.58;;;;;;;17.26;45.58;102377.44;5049871;28;20030;-78
2023/06/02 08:15:39;;;;;;;0.10;0.10;;;;;;;17.31;46.85;102380.03;5049429;28;20121;-75
2023/06/02 08:18:13;;;;;;;0.00;0.00;;;;;;;17.40;46.12;102379.78;5048847;28;20029;-79
2023/06/02 08:20:40;;;;;;;0.30;0.30;;;;;;;17.42;46.24;102371.72;5049086;28;20426;-77
2023/06/02 08:23:08;;;;;;;0.10;0.10;;;;;;;17.53;47.13;102371.44;5049082;28;20436;-77
2023/06/02 08:25:38;;;;;;;0.10;0.10;;;;;;;17.62;46.87;102368.56;5048297;28;20032;-75
2023/06/02 08:28:06;;;;;;;0.10;0.10;;;;;;;17.67;46.09;102363.97;5045006;28;20030;-77
2023/06/02 08:30:35;;;;;;;0.10;0.10;;;;;;;17.77;46.43;102368.16;5044139;28;20021;-76
2023/06/02 08:33:03;;;;;;;0.00;0.00;;;;;;;17.90;47.10;102368.69;5048620;28;20025;-78
2023/06/02 08:35:30;;;;;;;0.65;0.65;;;;;;;17.94;46.56;102364.16;5049184;28;20034;-75
2023/06/02 08:37:57;;;;;;;0.10;0.10;;;;;;;17.93;46.71;102365.06;5047134;28;20034;-77
2023/06/02 08:40:26;;;;;;;1.13;1.05;;;;;;;17.96;46.50;102370.38;5048543;28;20105;-78
2023/06/02 08:42:52;;;;;;;0.00;0.00;;;;;;;17.86;46.16;102368.84;5048127;28;20026;-79
2023/06/02 08:45:22;;;;;;;0.10;0.10;;;;;;;17.91;46.46;102372.28;5050184;28;20125;-77
2023/06/02 08:47:53;;;;;;;0.10;0.10;;;;;;;17.98;46.95;102367.66;5050224;28;20021;-77
2023/06/02 08:50:27;;;;;;;0.10;0.10;;;;;;;17.98;46.61;102368.56;5049264;28;20033;-77
2023/06/02 08:52:55;;;;;;;0.22;0.20;;;;;;;17.97;47.25;102369.47;5048332;28;20012;-78
2023/06/02 08:55:24;;;;;;;0.30;0.30;;;;;;;17.94;47.22;102372.22;5043970;28;20037;-78
2023/06/02 08:57:51;;;;;;;0.00;0.00;;;;;;;17.92;47.03;102363.31;5042943;28;20051;-75
2023/06/02 09:00:18;;;;;;;0.10;0.10;;;;;;;17.84;47.67;102368.88;5042204;28;20040;-78
2023/06/02 09:02:47;;;;;;;0.10;0.10;;;;;;;17.92;48.43;102372.22;5046906;28;20061;-76
2023/06/02 09:05:16;;;;;;;0.10;0.10;;;;;;;17.90;47.82;102370.50;5047034;28;20038;-78
2023/06/02 09:07:44;;;;;;;0.03;0.03;;;;;;;17.92;47.46;102366.88;5045038;28;20025;-77
2023/06/02 09:10:10;;;;;;;0.10;0.10;;;;;;;17.86;47.58;102371.53;5043611;28;20021;-77
2023/06/02 09:12:51;;;;;;;0.10;0.10;;;;;;;17.94;47.71;102372.22;5044466;28;20021;-77
2023/06/02 09:15:17;;;;;;;0.32;0.32;;;;;;;17.87;48.22;102371.47;5042311;28;20048;-79
2023/06/02 09:17:43;;;;;;;0.05;0.05;;;;;;;17.81;48.28;102376.09;5043921;28;20033;-79
2023/06/02 09:20:11;;;;;;;0.10;0.10;;;;;;;17.80;48.03;102377.91;5038140;28;20056;-76
2023/06/02 09:22:55;;;;;;;0.47;0.47;;;;;;;17.78;48.52;102377.97;5034755;28;20037;-78
2023/06/02 09:25:25;;;;;;;0.10;0.10;;;;;;;17.75;48.65;102378.03;5035394;28;20021;-79
2023/06/02 09:27:54;;;;;;;0.10;0.10;;;;;;;17.76;48.82;102373.56;5038477;28;20080;-78
2023/06/02 09:30:21;;;;;;;0.60;0.52;;;;;;;17.76;48.38;102377.09;5039524;28;20516;-78
2023/06/02 09:33:08;;;;;;;0.10;0.10;;;;;;;17.92;48.44;102384.78;5039568;28;20044;-77
2023/06/02 09:35:50;;;;;;;0.20;0.20;;;;;;;17.86;48.69;102374.22;5034661;28;20029;-78
2023/06/02 09:38:17;;;;;;;0.10;0.10;;;;;;;17.90;48.78;102375.88;5044033;28;20212;-77
2023/06/02 09:40:44;;;;;;;0.10;0.10;;;;;;;17.96;48.53;102373.06;5032488;28;20033;-76
2023/06/02 09:43:13;;;;;;;0.10;0.10;;;;;;;17.92;48.09;102377.59;5039666;28;20029;-77
2023/06/02 09:48:30;;;;;;;0.13;0.13;;;;;;;18.16;48.44;102375.22;5121978;27;20371;-79
2023/06/02 09:50:58;;;;;;;0.10;0.10;;;;;;;18.28;48.20;102376.69;5115561;27;20024;-78
2023/06/02 09:53:25;;;;;;;0.10;0.10;;;;;;;18.36;47.51;102376.47;5118574;28;20043;-79
2023/06/02 09:55:51;;;;;;;0.00;0.00;;;;;;;18.44;47.84;102379.78;5105028;28;20485;-78
2023/06/02 09:58:18;;;;;;;1.33;1.23;;;;;;;18.45;47.11;102380.69;5099865;28;20020;-78
2023/06/02 10:00:44;;;;;;;0.10;0.10;;;;;;;18.52;47.59;102376.91;5096456;28;20066;-79
2023/06/02 10:03:11;;;;;;;0.10;0.10;;;;;;;18.40;48.37;102370.06;5099893;28;20058;-77
2023/06/02 10:05:45;;;;;;;0.00;0.00;;;;;;;18.41;47.76;102375.38;5094618;28;20460;-78
2023/06/02 10:08:36;;;;;;;0.17;0.17;;;;;;;18.46;47.57;102366.34;5103831;28;20047;-77
2023/06/02 10:11:29;;;;;;;0.10;0.10;;;;;;;18.54;47.56;102358.94;5102208;28;20136;-79
2023/06/02 10:14:23;;;;;;;0.38;0.38;;;;;;;18.65;47.84;102364.84;5092545;28;20028;-77
2023/06/02 10:17:10;;;;;;;0.10;0.10;;;;;;;18.85;47.04;102360.69;5098608;28;20036;-78
2023/06/02 10:22:36;;;;;;;0.10;0.10;;;;;;;19.10;46.50;102357.28;5072672;28;20799;-78
2023/06/02 10:25:31;;;;;;;0.10;0.10;;;;;;;19.23;47.77;102358.66;5062231;28;20037;-77
2023/06/02 10:28:00;;;;;;;0.00;0.00;;;;;;;19.43;46.79;102363.38;5040170;28;20026;-78
2023/06/02 10:30:26;;;;;;;0.00;0.00;;;;;;;19.53;46.61;102364.81;5037524;28;20017;-79
2023/06/02 10:32:53;;;;;;;0.20;0.20;;;;;;;19.66;45.70;102357.19;5034294;28;20029;-78
2023/06/02 10:35:19;;;;;;;0.10;0.10;;;;;;;19.79;46.25;102359.47;5032916;28;20021;-77
2023/06/02 10:37:46;;;;;;;0.38;0.38;;;;;;;19.92;45.98;102365.34;5038995;28;20029;-77
2023/06/02 10:40:14;;;;;;;0.10;0.10;;;;;;;20.04;45.09;102360.41;5047533;28;20190;-77
2023/06/02 10:43:16;;;;;;;0.10;0.10;;;;;;;20.05;45.72;102361.31;5037947;28;20077;-78
2023/06/02 10:45:42;;;;;;;0.00;0.00;;;;;;;20.08;45.24;102363.00;5027557;28;20029;-78
2023/06/02 10:48:43;;;;;;;0.10;0.10;;;;;;;20.16;45.45;102361.78;5031390;28;20025;-77
2023/06/02 10:51:10;;;;;;;0.10;0.10;;;;;;;20.17;44.80;102363.53;5029228;28;20022;-78
2023/06/02 10:59:36;;;;;;;0.00;0.00;;;;;;;20.15;44.22;102361.81;5114074;27;20347;-78
2023/06/02 11:02:03;;;;;;;0.10;0.10;;;;;;;20.20;44.96;102367.94;5111816;28;20039;-77
2023/06/02 11:07:26;;;;;;;0.63;0.30;;;;;;;20.61;44.71;102365.53;5099942;27;20814;-78
2023/06/02 11:09:58;;;;;;;0.10;0.10;;;;;;;20.58;43.57;102368.31;5093536;28;20033;-79
2023/06/02 11:15:28;;;;;;;0.10;0.10;;;;;;;20.82;44.24;102366.53;5111690;27;20905;-76
2023/06/02 11:17:54;;;;;;;0.45;0.45;;;;;;;20.87;43.93;102368.16;5112907;28;20035;-77
2023/06/02 11:20:33;;;;;;;0.10;0.10;;;;;;;21.00;43.56;102354.13;5112473;27;20059;-78
2023/06/02 11:23:04;;;;;;;0.10;0.10;;;;;;;20.94;43.51;102367.00;5109237;28;21007;-80
2023/06/02 11:25:30;;;;;;;0.22;0.22;;;;;;;20.89;43.52;102364.47;5114284;28;20123;-79
2023/06/02 11:27:56;;;;;;;0.10;0.10;;;;;;;20.87;43.22;102366.34;5113089;28;20063;-79
2023/06/02 11:30:24;;;;;;;1.05;1.05;;;;;;;20.94;43.83;102367.00;5110362;28;20130;-79
2023/06/02 11:32:51;;;;;;;0.10;0.10;;;;;;;20.93;43.35;102360.72;5113756;28;20042;-77
2023/06/02 11:35:25;;;;;;;0.85;0.82;;;;;;;20.99;43.49;102360.47;5113945;28;20153;-80
2023/06/02 11:38:08;;;;;;;10.98;0.70;;;;;;;21.08;43.28;102358.34;5112264;27;20040;-80
2023/06/02 11:40:36;;;;;;;0.20;0.20;;;;;;;21.12;43.77;102365.38;5113190;28;20108;-77
2023/06/02 11:43:03;;;;;;;0.50;0.50;;;;;;;21.14;42.93;102363.50;5111044;28;20413;-78
2023/06/02 11:45:30;;;;;;;0.22;0.22;;;;;;;21.22;43.83;102358.69;5113866;28;20065;-80
2023/06/02 11:48:02;;;;;;;0.10;0.10;;;;;;;21.27;42.83;102359.38;5112239;27;20031;-79
2023/06/02 11:50:32;;;;;;;0.10;0.10;;;;;;;21.36;43.19;102365.28;5111892;27;20024;-78